TimePST,TemperatureF,Dew PointF,Humidity,Sea Level PressureIn,VisibilityMPH,Wind Direction,Wind SpeedMPH,Gust SpeedMPH,PrecipitationIn,Events,Conditions,WindDirDegrees,DateUTC
12:01 AM,44.6,42.8,93,30.13,9.0,North,8.1,-,N/A,,Partly Cloudy,10,2012-12-07 08:01:00
12:54 AM,44.1,43.0,96,30.10,10.0,Calm,Calm,-,N/A,,Clear,0,2012-12-07 08:54:00
1:06 AM,42.8,41.0,93,30.12,1.5,Calm,Calm,-,N/A,,Partly Cloudy,0,2012-12-07 09:06:00
1:17 AM,44.6,42.8,93,30.13,4.0,Calm,Calm,-,N/A,,Partly Cloudy,0,2012-12-07 09:17:00
1:36 AM,44.6,42.8,93,30.13,1.5,Calm,Calm,-,N/A,,Partly Cloudy,0,2012-12-07 09:36:00
1:38 AM,44.6,42.8,93,30.13,0.8,Calm,Calm,-,N/A,,Mist,0,2012-12-07 09:38:00
1:45 AM,42.8,41.0,93,30.13,0.2,Calm,Calm,-,N/A,Fog,Fog,0,2012-12-07 09:45:00
1:54 AM,39.0,37.9,96,30.11,0.8,Calm,Calm,-,N/A,,Mist,0,2012-12-07 09:54:00
2:01 AM,39.2,37.4,93,30.13,0.2,ESE,3.5,-,N/A,Fog,Fog,120,2012-12-07 10:01:00
2:36 AM,42.8,41.0,93,30.13,1.0,Calm,Calm,-,N/A,,Mist,0,2012-12-07 10:36:00
2:39 AM,42.8,41.0,93,30.13,2.0,Calm,Calm,-,N/A,,Partly Cloudy,0,2012-12-07 10:39:00
2:54 AM,39.0,37.0,93,30.10,0.5,Calm,Calm,-,N/A,Fog,Fog,0,2012-12-07 10:54:00
3:54 AM,39.0,37.9,96,30.09,0.2,Calm,Calm,-,N/A,Fog,Fog,0,2012-12-07 11:54:00
4:54 AM,39.9,39.0,97,30.09,0.2,Calm,Calm,-,N/A,Fog,Fog,0,2012-12-07 12:54:00
5:54 AM,39.0,39.0,100,30.09,0.2,Calm,Calm,-,N/A,Fog,Fog,0,2012-12-07 13:54:00
6:54 AM,37.9,36.0,93,30.10,0.2,Calm,Calm,-,N/A,Fog,Fog,0,2012-12-07 14:54:00
7:54 AM,39.9,39.0,97,30.12,0.2,Calm,Calm,-,N/A,Fog,Fog,0,2012-12-07 15:54:00
8:35 AM,42.8,41.0,93,30.15,1.0,Calm,Calm,-,N/A,,Mist,0,2012-12-07 16:35:00
8:42 AM,42.8,42.8,100,30.15,0.5,Calm,Calm,-,N/A,Fog,Fog,0,2012-12-07 16:42:00
8:49 AM,44.6,42.8,93,30.15,1.0,NNW,3.5,-,N/A,,Mostly Cloudy,340,2012-12-07 16:49:00
8:54 AM,45.0,43.0,93,30.13,3.0,NNW,3.5,-,N/A,,Mostly Cloudy,340,2012-12-07 16:54:00
9:01 AM,46.4,44.6,93,30.15,10.0,North,3.5,-,N/A,,Partly Cloudy,360,2012-12-07 17:01:00
9:54 AM,48.9,45.0,86,30.14,10.0,North,4.6,-,N/A,,Clear,350,2012-12-07 17:54:00
10:54 AM,53.1,45.0,74,30.13,10.0,Calm,Calm,-,N/A,,Clear,0,2012-12-07 18:54:00
11:54 AM,53.1,48.0,83,30.11,10.0,WSW,3.5,-,N/A,,Clear,250,2012-12-07 19:54:00
12:54 PM,57.9,48.0,70,30.08,10.0,Calm,Calm,-,N/A,,Clear,0,2012-12-07 20:54:00
1:54 PM,59.0,46.0,62,30.06,10.0,SW,4.6,-,N/A,,Clear,220,2012-12-07 21:54:00
2:54 PM,60.1,44.1,55,30.05,10.0,Calm,Calm,-,N/A,,Clear,0,2012-12-07 22:54:00
3:54 PM,60.1,46.9,62,30.05,10.0,Calm,Calm,-,N/A,,Clear,0,2012-12-07 23:54:00
5:54 PM,53.1,45.0,74,30.05,10.0,Calm,Calm,-,N/A,,Clear,0,2012-12-08 01:54:00
6:54 PM,46.9,43.0,86,30.05,10.0,Calm,Calm,-,N/A,,Clear,0,2012-12-08 02:54:00
7:54 PM,46.9,44.1,90,30.05,10.0,ESE,3.5,-,N/A,,Clear,110,2012-12-08 03:54:00
8:54 PM,45.0,43.0,93,30.06,10.0,Calm,Calm,-,N/A,,Clear,0,2012-12-08 04:54:00
9:54 PM,43.0,41.0,93,30.06,10.0,Calm,Calm,-,N/A,,Clear,0,2012-12-08 05:54:00
10:21 PM,39.2,39.2,100,30.08,1.8,Calm,Calm,-,N/A,,Clear,0,2012-12-08 06:21:00
10:33 PM,39.2,37.4,93,30.09,0.8,Calm,Calm,-,N/A,,Clear,0,2012-12-08 06:33:00
10:42 PM,39.2,39.2,100,30.09,2.0,Calm,Calm,-,N/A,,Clear,0,2012-12-08 06:42:00
10:54 PM,42.1,39.9,92,30.07,2.0,NNE,4.6,-,N/A,,Clear,20,2012-12-08 06:54:00
11:02 PM,42.8,41.0,93,30.09,10.0,Calm,Calm,-,N/A,,Clear,0,2012-12-08 07:02:00